createdAt,value
2023-07-18T00:01:37.056Z,102267.38
2023-07-18T00:04:04.158Z,102263.19
2023-07-18T00:06:30.930Z,102263.38
2023-07-18T00:08:57.478Z,102264.81
2023-07-18T00:11:24.768Z,102267.88
2023-07-18T00:13:51.422Z,102260.94
2023-07-18T00:16:18.092Z,102263.50
2023-07-18T00:18:44.755Z,102257.41
2023-07-18T00:21:13.498Z,102257.22
2023-07-18T00:23:40.142Z,102248.28
2023-07-18T00:26:06.684Z,102244.84
2023-07-18T00:28:34.036Z,102247.31
2023-07-18T00:31:00.747Z,102249.78
2023-07-18T00:33:27.283Z,102247.78
2023-07-18T00:35:53.848Z,102244.25
2023-07-18T00:38:21.636Z,102248.66
2023-07-18T00:40:50.186Z,102244.06
2023-07-18T00:43:16.994Z,102246.75
2023-07-18T00:45:45.580Z,102248.66
2023-07-18T00:48:12.404Z,102244.16
2023-07-18T00:50:39.586Z,102245.00
2023-07-18T00:53:06.563Z,102245.31
2023-07-18T00:55:33.637Z,102246.66
2023-07-18T00:58:02.905Z,102248.44
2023-07-18T01:00:29.665Z,102247.91
2023-07-18T01:02:56.229Z,102249.88
2023-07-18T01:05:23.450Z,102247.31
2023-07-18T01:07:50.083Z,102247.53
2023-07-18T01:10:24.744Z,102251.03
2023-07-18T01:12:52.752Z,102254.75
2023-07-18T01:15:22.610Z,102243.34
2023-07-18T01:17:50.412Z,102244.84
2023-07-18T01:20:22.698Z,102256.44
2023-07-18T01:22:55.037Z,102259.63
2023-07-18T01:25:22.343Z,102254.47
2023-07-18T01:27:51.762Z,102247.72
2023-07-18T01:30:20.621Z,102248.66
2023-07-18T01:32:50.303Z,102254.19
2023-07-18T01:35:20.935Z,102246.97
2023-07-18T01:37:48.534Z,102258.84
2023-07-18T01:40:21.140Z,102264.16
2023-07-18T01:42:52.757Z,102255.50
2023-07-18T01:45:20.569Z,102248.56
2023-07-18T01:47:47.824Z,102234.94
2023-07-18T01:50:14.821Z,102238.59
2023-07-18T01:52:41.509Z,102234.09
2023-07-18T01:55:08.606Z,102233.44
2023-07-18T01:57:41.586Z,102234.47
2023-07-18T02:00:13.541Z,102239.13
2023-07-18T02:02:40.494Z,102233.25
2023-07-18T02:05:07.442Z,102235.91
2023-07-18T02:07:34.068Z,102238.56
2023-07-18T02:10:01.956Z,102231.50
2023-07-18T02:12:29.034Z,102226.56
2023-07-18T02:14:55.652Z,102232.63
2023-07-18T02:17:22.348Z,102222.19
2023-07-18T02:19:48.903Z,102218.75
2023-07-18T02:22:15.930Z,102228.66
2023-07-18T02:24:42.547Z,102224.47
2023-07-18T02:27:09.178Z,102220.28
2023-07-18T02:29:35.713Z,102220.09
2023-07-18T02:32:02.575Z,102227.22
2023-07-18T02:34:29.162Z,102223.91
2023-07-18T02:36:55.746Z,102217.09
2023-07-18T02:39:22.477Z,102218.91
2023-07-18T02:41:49.120Z,102225.16
2023-07-18T02:44:15.626Z,102214.34
2023-07-18T02:46:42.271Z,102214.25
2023-07-18T02:49:08.822Z,102212.63
2023-07-18T02:51:35.339Z,102217.00
2023-07-18T02:54:01.919Z,102215.47
2023-07-18T02:56:28.398Z,102203.94
2023-07-18T02:58:54.952Z,102196.06
2023-07-18T03:01:21.675Z,102207.50
2023-07-18T03:03:48.554Z,102205.09
2023-07-18T03:06:16.701Z,102206.13
2023-07-18T03:08:43.360Z,102211.44
2023-07-18T03:11:10.196Z,102218.59
2023-07-18T03:13:37.634Z,102212.00
2023-07-18T03:16:06.029Z,102220.94
2023-07-18T03:18:32.983Z,102222.81
2023-07-18T03:20:59.737Z,102224.56
2023-07-18T03:23:27.258Z,102222.81
2023-07-18T03:25:53.790Z,102219.59
2023-07-18T03:28:21.056Z,102220.44
2023-07-18T03:30:48.219Z,102223.88
2023-07-18T03:33:16.528Z,102223.22
2023-07-18T03:35:43.267Z,102223.22
2023-07-18T03:38:09.851Z,102236.41
2023-07-18T03:40:36.385Z,102223.97
2023-07-18T03:43:03.336Z,102233.47
2023-07-18T03:45:30.268Z,102235.19
2023-07-18T03:47:56.991Z,102221.19
2023-07-18T03:50:24.873Z,102234.16
2023-07-18T03:52:51.448Z,102239.56
2023-07-18T03:55:18.391Z,102227.97
2023-07-18T03:57:45.702Z,102227.91
2023-07-18T04:00:18.152Z,102225.31
2023-07-18T04:02:47.756Z,102218.19
2023-07-18T04:05:15.651Z,102220.84
2023-07-18T04:07:42.839Z,102226.00
2023-07-18T04:10:10.999Z,102217.25
2023-07-18T04:12:37.705Z,102228.75
2023-07-18T04:15:04.541Z,102216.28
2023-07-18T04:17:31.641Z,102217.13
2023-07-18T04:20:00.495Z,102213.53
2023-07-18T04:22:27.545Z,102212.41
2023-07-18T04:24:55.387Z,102202.03
2023-07-18T04:27:22.397Z,102201.94
2023-07-18T04:29:49.783Z,102190.72
2023-07-18T04:32:18.936Z,102196.72
2023-07-18T04:34:45.660Z,102212.56
2023-07-18T04:37:12.174Z,102208.78
2023-07-18T04:39:38.688Z,102203.28
2023-07-18T04:42:05.563Z,102203.78
2023-07-18T04:44:32.378Z,102204.50
2023-07-18T04:46:59.038Z,102206.94
2023-07-18T04:49:26.287Z,102213.81
2023-07-18T04:51:53.372Z,102202.03
2023-07-18T04:54:20.061Z,102205.16
2023-07-18T04:56:46.754Z,102211.94
2023-07-18T04:59:13.285Z,102199.28
2023-07-18T05:01:41.473Z,102198.03
2023-07-18T05:04:08.030Z,102192.72
2023-07-18T05:06:34.562Z,102199.38
2023-07-18T05:09:01.141Z,102187.66
2023-07-18T05:11:27.803Z,102195.19
2023-07-18T05:13:54.733Z,102196.50
2023-07-18T05:16:21.338Z,102196.13
2023-07-18T05:18:47.923Z,102186.97
2023-07-18T05:21:15.241Z,102193.44
2023-07-18T05:23:41.752Z,102191.22
2023-07-18T05:26:09.441Z,102195.31
2023-07-18T05:28:35.955Z,102191.09
2023-07-18T05:31:10.570Z,102189.53
2023-07-18T05:33:37.191Z,102197.13
2023-07-18T05:36:04.013Z,102195.06
2023-07-18T05:38:30.616Z,102186.28
2023-07-18T05:40:57.375Z,102195.50
2023-07-18T05:43:23.907Z,102194.84
2023-07-18T05:45:50.617Z,102190.06
2023-07-18T05:48:17.173Z,102189.84
2023-07-18T05:50:43.759Z,102193.69
2023-07-18T05:53:10.333Z,102197.78
2023-07-18T05:55:37.042Z,102185.69
2023-07-18T05:58:03.561Z,102198.34
2023-07-18T06:00:30.086Z,102191.38
2023-07-18T06:02:58.904Z,102190.44
2023-07-18T06:05:26.660Z,102192.88
2023-07-18T06:07:53.485Z,102191.69
2023-07-18T06:10:20.232Z,102191.38
2023-07-18T06:12:46.755Z,102194.25
2023-07-18T06:15:13.357Z,102200.44
2023-07-18T06:17:40.670Z,102199.41
2023-07-18T06:20:13.344Z,102201.31
2023-07-18T06:22:40.462Z,102207.19
2023-07-18T06:25:07.791Z,102201.28
2023-07-18T06:27:34.409Z,102202.22
2023-07-18T06:30:01.149Z,102204.69
2023-07-18T06:32:30.079Z,102203.25
2023-07-18T06:35:00.686Z,102201.44
2023-07-18T06:37:32.898Z,102209.75
2023-07-18T06:39:59.413Z,102201.53
2023-07-18T06:42:25.958Z,102202.44
2023-07-18T06:44:52.774Z,102203.13
2023-07-18T06:47:19.553Z,102200.97
2023-07-18T06:49:46.079Z,102189.78
2023-07-18T06:52:12.599Z,102195.63
2023-07-18T06:54:39.110Z,102193.34
2023-07-18T06:57:06.035Z,102193.06
2023-07-18T06:59:32.619Z,102195.00
2023-07-18T07:01:59.276Z,102199.31
2023-07-18T07:04:25.858Z,102198.34
2023-07-18T07:06:52.356Z,102194.94
2023-07-18T07:09:18.848Z,102196.38
2023-07-18T07:11:45.424Z,102194.31
2023-07-18T07:14:15.316Z,102199.91
2023-07-18T07:16:42.132Z,102196.00
2023-07-18T07:19:09.105Z,102192.09
2023-07-18T07:21:35.686Z,102197.22
2023-07-18T07:24:03.710Z,102191.84
2023-07-18T07:26:30.471Z,102194.03
2023-07-18T07:28:57.083Z,102186.47
2023-07-18T07:31:24.379Z,102184.88
2023-07-18T07:33:51.526Z,102185.47
2023-07-18T07:36:18.079Z,102179.13
2023-07-18T07:38:44.601Z,102184.84
2023-07-18T07:41:11.230Z,102183.75
2023-07-18T07:43:37.925Z,102182.75
2023-07-18T07:46:05.345Z,102164.38
2023-07-18T07:48:32.205Z,102168.81
2023-07-18T07:50:59.853Z,102169.88
2023-07-18T07:53:26.744Z,102168.09
2023-07-18T07:55:53.422Z,102161.53
2023-07-18T07:58:19.942Z,102166.34
2023-07-18T08:00:47.298Z,102157.50
2023-07-18T08:03:14.030Z,102151.41
2023-07-18T08:05:40.549Z,102155.84
2023-07-18T08:08:07.232Z,102149.31
2023-07-18T08:10:33.928Z,102150.22
2023-07-18T08:13:00.621Z,102145.19
2023-07-18T08:15:28.228Z,102138.00
2023-07-18T08:17:58.405Z,102147.63
2023-07-18T08:20:25.032Z,102132.63
2023-07-18T08:22:51.657Z,102132.53
2023-07-18T08:25:19.041Z,102138.09
2023-07-18T08:27:46.262Z,102141.09
2023-07-18T08:30:13.124Z,102135.81
2023-07-18T08:32:41.633Z,102141.47
2023-07-18T08:35:08.642Z,102134.00
2023-07-18T08:37:35.367Z,102142.25
2023-07-18T08:40:02.285Z,102139.56
2023-07-18T08:42:29.416Z,102142.84
2023-07-18T08:44:56.966Z,102145.63
2023-07-18T08:47:24.860Z,102148.75
2023-07-18T08:49:52.343Z,102144.13
2023-07-18T08:52:18.974Z,102133.66
2023-07-18T08:54:45.970Z,102125.38
2023-07-18T08:57:13.846Z,102118.00
2023-07-18T08:59:40.985Z,102130.72
2023-07-18T09:02:07.655Z,102131.97
2023-07-18T09:04:34.412Z,102128.69
2023-07-18T09:07:02.280Z,102127.28
2023-07-18T09:09:29.081Z,102121.41
2023-07-18T09:12:05.604Z,102118.94
2023-07-18T09:14:34.197Z,102109.88
2023-07-18T09:17:05.026Z,102113.66
2023-07-18T09:19:39.894Z,102121.44
2023-07-18T09:22:08.517Z,102110.19
2023-07-18T09:24:38.494Z,102103.34
2023-07-18T09:27:23.377Z,102108.16
2023-07-18T09:29:50.553Z,102121.06
2023-07-18T09:32:20.835Z,102111.34
2023-07-18T09:34:54.810Z,102100.06
2023-07-18T09:37:21.604Z,102104.00
2023-07-18T09:39:49.771Z,102102.56
2023-07-18T09:42:20.354Z,102100.63
2023-07-18T09:44:53.619Z,102115.75
2023-07-18T09:47:21.736Z,102100.50
2023-07-18T09:49:48.762Z,102101.44
2023-07-18T09:52:17.212Z,102104.72
2023-07-18T09:54:45.199Z,102099.50
2023-07-18T09:57:13.801Z,102104.13
2023-07-18T09:59:41.392Z,102093.53
2023-07-18T10:02:11.300Z,102089.88
2023-07-18T10:04:39.493Z,102091.94
2023-07-18T10:07:09.891Z,102087.91
2023-07-18T10:09:37.555Z,102083.59
2023-07-18T10:12:04.235Z,102090.00
2023-07-18T10:14:47.821Z,102086.63
2023-07-18T10:17:29.098Z,102079.47
2023-07-18T10:19:55.862Z,102082.84
2023-07-18T10:22:30.021Z,102082.44
2023-07-18T10:25:02.036Z,102084.59
2023-07-18T10:27:39.568Z,102079.19
2023-07-18T10:30:16.872Z,102065.03
2023-07-18T10:32:57.454Z,102060.53
2023-07-18T10:35:27.740Z,102067.75
2023-07-18T10:37:56.915Z,102056.84
2023-07-18T10:40:32.909Z,102057.78
2023-07-18T10:42:59.769Z,102051.13
2023-07-18T10:45:27.976Z,102050.88
2023-07-18T10:47:54.645Z,102042.78
2023-07-18T10:50:21.204Z,102036.47
2023-07-18T10:52:48.990Z,102038.97
2023-07-18T10:55:17.868Z,102033.13
2023-07-18T10:57:44.501Z,102032.69
2023-07-18T11:00:11.826Z,102027.09
2023-07-18T11:02:43.203Z,102020.50
2023-07-18T11:05:14.841Z,102024.69
2023-07-18T11:07:44.105Z,102027.00
2023-07-18T11:10:11.744Z,102025.81
2023-07-18T11:12:39.281Z,102019.56
2023-07-18T11:15:07.275Z,102015.72
2023-07-18T11:17:34.818Z,102004.63
2023-07-18T11:20:01.733Z,102017.47
2023-07-18T11:22:29.548Z,102017.94
2023-07-18T11:24:57.285Z,102023.88
2023-07-18T11:27:25.280Z,102028.63
2023-07-18T11:30:02.396Z,102025.28
2023-07-18T11:32:41.069Z,102018.69
2023-07-18T11:35:10.427Z,102010.34
2023-07-18T11:37:42.397Z,102000.09
2023-07-18T11:40:10.746Z,102001.78
2023-07-18T11:42:48.895Z,102003.53
2023-07-18T11:45:24.012Z,102011.84
2023-07-18T11:47:55.775Z,102004.19
2023-07-18T11:50:28.393Z,102000.41
2023-07-18T11:52:58.906Z,101987.59
2023-07-18T11:55:25.554Z,101990.16
2023-07-18T11:57:52.190Z,101993.75
2023-07-18T12:00:19.295Z,101991.56
2023-07-18T12:02:46.874Z,101983.03
2023-07-18T12:05:17.963Z,101978.31
2023-07-18T12:07:46.131Z,101980.06
2023-07-18T12:10:15.536Z,101965.34
2023-07-18T12:12:42.099Z,101968.53
2023-07-18T12:15:10.210Z,101979.25
2023-07-18T12:17:39.626Z,101969.44
2023-07-18T12:20:07.802Z,101971.75
2023-07-18T12:22:34.613Z,101966.19
2023-07-18T12:25:03.426Z,101964.47
2023-07-18T12:27:30.462Z,101967.56
2023-07-18T12:29:57.165Z,101975.19
2023-07-18T12:32:27.315Z,101956.13
2023-07-18T12:34:55.852Z,101948.81
2023-07-18T12:37:22.479Z,101953.47
2023-07-18T12:39:49.052Z,101958.34
2023-07-18T12:42:15.675Z,101944.56
2023-07-18T12:44:45.838Z,101950.88
2023-07-18T12:47:12.937Z,101955.53
2023-07-18T12:52:09.744Z,101958.88
2023-07-18T12:54:36.383Z,101956.75
2023-07-18T12:57:03.287Z,101951.97
2023-07-18T12:59:30.034Z,101947.38
2023-07-18T13:01:57.638Z,101943.69
2023-07-18T13:04:25.202Z,101944.97
2023-07-18T13:06:52.119Z,101947.47
2023-07-18T13:09:18.815Z,101941.53
2023-07-18T13:11:46.220Z,101931.81
2023-07-18T13:14:18.346Z,101942.88
2023-07-18T13:16:45.074Z,101928.81
2023-07-18T13:19:11.617Z,101929.03
2023-07-18T13:21:38.445Z,101931.00
2023-07-18T13:24:05.560Z,101929.00
2023-07-18T13:26:32.192Z,101930.25
2023-07-18T13:28:58.914Z,101922.69
2023-07-18T13:31:25.556Z,101917.06
2023-07-18T13:33:52.249Z,101918.34
2023-07-18T13:36:19.087Z,101911.66
2023-07-18T13:38:45.941Z,101898.97
2023-07-18T13:41:12.583Z,101904.66
2023-07-18T13:43:40.399Z,101896.78
2023-07-18T13:46:07.685Z,101890.34
2023-07-18T13:48:34.792Z,101882.75
2023-07-18T13:51:01.863Z,101874.59
2023-07-18T13:53:28.524Z,101862.47
2023-07-18T13:55:56.133Z,101868.47
2023-07-18T13:58:23.357Z,101866.19
2023-07-18T14:00:50.234Z,101864.00
2023-07-18T14:03:33.373Z,101860.16
2023-07-18T14:06:01.685Z,101855.16
2023-07-18T14:08:30.586Z,101843.81
2023-07-18T14:10:57.387Z,101846.78
2023-07-18T14:13:23.941Z,101848.44
2023-07-18T14:15:50.557Z,101844.38
2023-07-18T14:18:17.201Z,101842.81
2023-07-18T14:20:44.887Z,101842.66
2023-07-18T14:23:11.578Z,101846.84
2023-07-18T14:25:38.349Z,101838.97
2023-07-18T14:28:04.968Z,101835.19
2023-07-18T14:30:31.713Z,101828.53
2023-07-18T14:32:58.249Z,101824.88
2023-07-18T14:35:25.215Z,101830.25
2023-07-18T14:37:52.015Z,101819.06
2023-07-18T14:40:18.729Z,101811.22
2023-07-18T14:42:45.913Z,101813.25
2023-07-18T14:45:12.712Z,101822.00
2023-07-18T14:47:39.468Z,101812.00
2023-07-18T14:50:06.561Z,101816.06
2023-07-18T14:52:33.143Z,101812.44
2023-07-18T14:55:00.568Z,101810.00
2023-07-18T14:57:27.475Z,101798.81
2023-07-18T14:59:54.640Z,101806.44
2023-07-18T15:02:22.025Z,101800.59
2023-07-18T15:04:48.716Z,101804.28
2023-07-18T15:07:15.317Z,101803.69
2023-07-18T15:09:41.953Z,101804.28
2023-07-18T15:12:08.967Z,101808.16
2023-07-18T15:14:35.544Z,101801.66
2023-07-18T15:17:02.204Z,101795.09
2023-07-18T15:19:28.753Z,101799.97
2023-07-18T15:21:55.419Z,101805.44
2023-07-18T15:24:21.955Z,101799.44
2023-07-18T15:26:48.628Z,101805.94
2023-07-18T15:29:15.634Z,101802.84
2023-07-18T15:31:42.280Z,101801.84
2023-07-18T15:34:10.046Z,101800.53
2023-07-18T15:36:36.606Z,101796.03
2023-07-18T15:39:03.290Z,101800.13
2023-07-18T15:41:29.921Z,101795.53
2023-07-18T15:43:57.713Z,101792.59
2023-07-18T15:46:24.811Z,101785.09
2023-07-18T15:48:51.729Z,101785.94
2023-07-18T15:51:18.295Z,101788.25
2023-07-18T15:53:44.823Z,101788.72
2023-07-18T15:56:15.547Z,101789.41
2023-07-18T15:58:42.553Z,101787.09
2023-07-18T16:01:09.330Z,101772.81
2023-07-18T16:03:36.266Z,101774.78
2023-07-18T16:06:03.742Z,101772.72
2023-07-18T16:08:30.398Z,101772.16
2023-07-18T16:10:57.021Z,101758.66
2023-07-18T16:13:23.666Z,101762.41
2023-07-18T16:15:50.262Z,101759.91
2023-07-18T16:18:16.890Z,101753.03
2023-07-18T16:20:49.497Z,101751.44
2023-07-18T16:23:16.085Z,101746.19
2023-07-18T16:25:43.729Z,101746.84
2023-07-18T16:28:10.332Z,101737.47
2023-07-18T16:30:36.829Z,101743.22
2023-07-18T16:33:03.487Z,101731.06
2023-07-18T16:35:30.635Z,101733.22
2023-07-18T16:37:57.188Z,101731.56
2023-07-18T16:40:23.832Z,101732.47
2023-07-18T16:42:50.422Z,101731.13
2023-07-18T16:45:17.054Z,101729.78
2023-07-18T16:47:43.604Z,101730.25
2023-07-18T16:50:10.508Z,101726.03
2023-07-18T16:52:37.048Z,101720.72
2023-07-18T16:55:03.693Z,101718.22
2023-07-18T16:57:30.215Z,101725.22
2023-07-18T16:59:56.766Z,101714.72
2023-07-18T17:02:23.321Z,101717.28
2023-07-18T17:04:49.988Z,101721.59
2023-07-18T17:07:16.641Z,101714.25
2023-07-18T17:09:43.220Z,101719.50
2023-07-18T17:12:09.751Z,101713.19
2023-07-18T17:14:36.272Z,101704.25
2023-07-18T17:17:02.840Z,101709.66
2023-07-18T17:19:29.460Z,101688.88
2023-07-18T17:21:55.999Z,101689.75
2023-07-18T17:24:22.608Z,101699.47
2023-07-18T17:26:49.970Z,101700.34
2023-07-18T17:29:18.767Z,101696.66
2023-07-18T17:31:46.087Z,101702.63
2023-07-18T17:34:12.704Z,101707.31
2023-07-18T17:36:39.258Z,101712.16
2023-07-18T17:39:05.846Z,101708.44
2023-07-18T17:41:33.043Z,101698.50
2023-07-18T17:44:00.055Z,101704.59
2023-07-18T17:46:26.666Z,101701.59
2023-07-18T17:48:53.252Z,101704.59
2023-07-18T17:51:19.914Z,101706.72
2023-07-18T17:53:46.603Z,101706.06
2023-07-18T17:56:13.146Z,101703.25
2023-07-18T17:58:39.718Z,101699.53
2023-07-18T18:01:06.245Z,101709.28
2023-07-18T18:03:33.162Z,101713.75
2023-07-18T18:05:59.932Z,101713.69
2023-07-18T18:08:26.452Z,101713.78
2023-07-18T18:10:53.169Z,101717.19
2023-07-18T18:13:19.741Z,101716.81
2023-07-18T18:16:04.938Z,101711.59
2023-07-18T18:18:32.869Z,101706.34
2023-07-18T18:21:01.343Z,101708.78
2023-07-18T18:23:38.707Z,101702.03
2023-07-18T18:26:07.255Z,101702.06
2023-07-18T18:28:34.139Z,101699.38
2023-07-18T18:31:01.200Z,101714.81
2023-07-18T18:33:28.155Z,101709.56
2023-07-18T18:35:55.674Z,101707.06
2023-07-18T18:38:22.355Z,101717.03
2023-07-18T18:40:49.220Z,101707.75
2023-07-18T18:43:15.837Z,101710.28
2023-07-18T18:45:42.454Z,101711.63
2023-07-18T18:48:11.002Z,101703.78
2023-07-18T18:50:37.983Z,101700.75
2023-07-18T18:53:04.509Z,101696.03
2023-07-18T18:55:33.454Z,101698.56
2023-07-18T18:58:00.817Z,101706.16
2023-07-18T19:00:27.448Z,101706.47
2023-07-18T19:02:54.414Z,101711.84
2023-07-18T19:05:21.294Z,101709.78
2023-07-18T19:07:47.998Z,101711.13
2023-07-18T19:10:14.554Z,101705.69
2023-07-18T19:12:41.431Z,101706.72
2023-07-18T19:15:08.516Z,101704.19
2023-07-18T19:17:35.202Z,101703.50
2023-07-18T19:20:01.931Z,101698.53
2023-07-18T19:22:28.719Z,101698.69
2023-07-18T19:24:55.307Z,101694.78
2023-07-18T19:27:21.909Z,101695.41
2023-07-18T19:29:48.679Z,101696.41
2023-07-18T19:32:15.243Z,101699.25
2023-07-18T19:34:44.812Z,101696.34
2023-07-18T19:37:11.430Z,101695.66
2023-07-18T19:39:38.330Z,101689.53
2023-07-18T19:42:05.765Z,101690.16
2023-07-18T19:44:32.788Z,101690.13
2023-07-18T19:46:59.573Z,101699.22
2023-07-18T19:49:27.225Z,101707.81
2023-07-18T19:51:54.709Z,101704.91
2023-07-18T19:54:21.240Z,101712.28
2023-07-18T19:56:47.916Z,101717.50
2023-07-18T19:59:14.637Z,101705.66
2023-07-18T20:01:41.384Z,101709.53
2023-07-18T20:04:08.028Z,101710.16
2023-07-18T20:06:34.655Z,101709.59
2023-07-18T20:09:01.770Z,101709.22
2023-07-18T20:11:28.554Z,101703.22
2023-07-18T20:13:55.458Z,101698.81
2023-07-18T20:16:22.444Z,101696.78
2023-07-18T20:18:52.430Z,101681.72
2023-07-18T20:21:22.471Z,101681.66
2023-07-18T20:23:49.230Z,101684.53
2023-07-18T20:26:15.966Z,101665.44
2023-07-18T20:28:43.591Z,101667.28
2023-07-18T20:31:10.265Z,101663.19
2023-07-18T20:33:36.774Z,101660.41
2023-07-18T20:36:03.387Z,101657.97
2023-07-18T20:38:29.906Z,101663.72
2023-07-18T20:40:58.825Z,101670.28
2023-07-18T20:43:25.494Z,101685.28
2023-07-18T20:46:00.208Z,101690.16
2023-07-18T20:48:30.754Z,101686.91
2023-07-18T20:50:58.631Z,101677.31
2023-07-18T20:53:26.272Z,101684.59
2023-07-18T20:55:52.804Z,101685.63
2023-07-18T20:58:19.536Z,101681.16
2023-07-18T21:00:46.239Z,101681.75
2023-07-18T21:03:13.119Z,101675.09
2023-07-18T21:05:40.511Z,101677.78
2023-07-18T21:08:07.375Z,101664.66
2023-07-18T21:10:34.600Z,101668.31
2023-07-18T21:13:02.921Z,101668.63
2023-07-18T21:15:29.745Z,101669.63
2023-07-18T21:17:56.536Z,101680.13
2023-07-18T21:20:23.343Z,101672.06
2023-07-18T21:22:50.061Z,101660.34
2023-07-18T21:25:16.650Z,101658.94
2023-07-18T21:27:44.545Z,101668.13
2023-07-18T21:30:11.384Z,101665.81
2023-07-18T21:32:38.175Z,101669.53
2023-07-18T21:35:05.081Z,101661.91
2023-07-18T21:37:31.609Z,101654.56
2023-07-18T21:40:00.677Z,101656.53
2023-07-18T21:42:27.177Z,101653.59
2023-07-18T21:44:53.758Z,101657.28
2023-07-18T21:47:20.410Z,101649.78
2023-07-18T21:49:49.483Z,101656.84
2023-07-18T21:52:16.210Z,101648.81
2023-07-18T21:54:42.769Z,101654.31
2023-07-18T21:57:09.310Z,101648.94
2023-07-18T21:59:35.841Z,101641.03
2023-07-18T22:02:02.456Z,101641.31
2023-07-18T22:04:29.048Z,101642.72
2023-07-18T22:06:55.579Z,101642.31
2023-07-18T22:09:22.245Z,101635.94
2023-07-18T22:11:48.895Z,101643.69
2023-07-18T22:14:15.393Z,101638.75
2023-07-18T22:16:41.881Z,101639.44
2023-07-18T22:19:08.450Z,101639.28
2023-07-18T22:21:34.962Z,101636.44
2023-07-18T22:24:01.525Z,101631.91
2023-07-18T22:26:28.022Z,101632.19
2023-07-18T22:28:58.040Z,101628.09
2023-07-18T22:31:24.860Z,101632.44
2023-07-18T22:33:51.546Z,101632.44
2023-07-18T22:36:18.025Z,101629.22
2023-07-18T22:38:45.096Z,101629.59
2023-07-18T22:41:11.599Z,101623.41
2023-07-18T22:43:38.238Z,101623.28
2023-07-18T22:46:05.004Z,101623.13
2023-07-18T22:48:31.682Z,101622.25
2023-07-18T22:50:58.846Z,101618.63
2023-07-18T22:53:25.626Z,101619.31
2023-07-18T22:55:52.298Z,101618.31
2023-07-18T22:58:18.841Z,101616.34
2023-07-18T23:00:45.387Z,101608.47
2023-07-18T23:03:12.668Z,101617.22
2023-07-18T23:05:39.323Z,101612.00
2023-07-18T23:08:06.499Z,101611.28
2023-07-18T23:10:33.236Z,101611.97
2023-07-18T23:13:00.668Z,101617.88
2023-07-18T23:15:27.288Z,101611.63
2023-07-18T23:17:53.872Z,101615.97
2023-07-18T23:20:20.473Z,101612.56
2023-07-18T23:22:47.022Z,101616.25
2023-07-18T23:25:13.681Z,101607.50
2023-07-18T23:27:40.280Z,101605.25
2023-07-18T23:30:07.516Z,101602.41
2023-07-18T23:32:34.328Z,101604.94
2023-07-18T23:35:00.908Z,101594.09
2023-07-18T23:37:27.569Z,101597.34
2023-07-18T23:39:54.222Z,101588.63
2023-07-18T23:42:20.790Z,101588.44
2023-07-18T23:44:47.298Z,101588.44
2023-07-18T23:47:13.904Z,101587.75
2023-07-18T23:49:40.423Z,101592.84
2023-07-18T23:52:07.318Z,101583.94
2023-07-18T23:54:33.881Z,101593.09
2023-07-18T23:57:00.457Z,101587.03
2023-07-18T23:59:27.022Z,101594.81
